sensor_id;sensor_type;location;lat;lon;timestamp;P1;durP1;ratioP1;P2;durP2;ratioP2
29686;SDS011;16599;47.078;15.536;2022-08-03T08:26:22;2.20;;;2.00;;
29686;SDS011;16599;47.078;15.536;2022-08-03T08:28:49;3.03;;;1.67;;
29686;SDS011;16599;47.078;15.536;2022-08-03T08:31:17;11.93;;;2.70;;
29686;SDS011;16599;47.078;15.536;2022-08-03T08:33:44;14.02;;;2.70;;
29686;SDS011;16599;47.078;15.536;2022-08-03T08:36:29;11.80;;;2.17;;
29686;SDS011;16599;47.078;15.536;2022-08-03T08:38:59;6.72;;;1.98;;
29686;SDS011;16599;47.078;15.536;2022-08-03T08:41:27;5.13;;;2.25;;
29686;SDS011;16599;47.078;15.536;2022-08-03T08:43:57;13.13;;;2.85;;
29686;SDS011;16599;47.078;15.536;2022-08-03T08:46:25;7.57;;;2.30;;
29686;SDS011;16599;47.078;15.536;2022-08-03T08:48:54;2.22;;;2.00;;
29686;SDS011;16599;47.078;15.536;2022-08-03T08:51:25;3.70;;;2.20;;
29686;SDS011;16599;47.078;15.536;2022-08-03T08:54:14;1.80;;;1.70;;
29686;SDS011;16599;47.078;15.536;2022-08-03T08:56:46;6.57;;;2.08;;
29686;SDS011;16599;47.078;15.536;2022-08-03T08:59:17;7.90;;;2.60;;
29686;SDS011;16599;47.078;15.536;2022-08-03T09:01:45;58.60;;;4.25;;
29686;SDS011;16599;47.078;15.536;2022-08-03T09:04:12;23.05;;;2.60;;
29686;SDS011;16599;47.078;15.536;2022-08-03T09:06:39;6.07;;;2.00;;
29686;SDS011;16599;47.078;15.536;2022-08-03T09:09:23;5.53;;;2.10;;
29686;SDS011;16599;47.078;15.536;2022-08-03T09:12:10;7.07;;;2.03;;
29686;SDS011;16599;47.078;15.536;2022-08-03T09:14:57;12.35;;;1.90;;
29686;SDS011;16599;47.078;15.536;2022-08-03T09:17:46;6.40;;;1.80;;
29686;SDS011;16599;47.078;15.536;2022-08-03T09:20:16;2.60;;;2.40;;
29686;SDS011;16599;47.078;15.536;2022-08-03T09:23:03;7.45;;;1.85;;
29686;SDS011;16599;47.078;15.536;2022-08-03T09:25:58;2.10;;;1.90;;
29686;SDS011;16599;47.078;15.536;2022-08-03T09:28:32;1.98;;;1.60;;
29686;SDS011;16599;47.078;15.536;2022-08-03T09:31:40;5.15;;;1.90;;
29686;SDS011;16599;47.078;15.536;2022-08-03T09:34:11;2.95;;;1.70;;
29686;SDS011;16599;47.078;15.536;2022-08-03T09:39:15;2.10;;;1.90;;
29686;SDS011;16599;47.078;15.536;2022-08-03T09:42:26;2.58;;;1.77;;
29686;SDS011;16599;47.078;15.536;2022-08-03T09:44:39;3.92;;;2.17;;
29686;SDS011;16599;47.078;15.536;2022-08-03T09:47:12;2.20;;;2.00;;
29686;SDS011;16599;47.078;15.536;2022-08-03T09:49:40;2.05;;;1.77;;
29686;SDS011;16599;47.078;15.536;2022-08-03T09:52:21;2.17;;;1.98;;
29686;SDS011;16599;47.078;15.536;2022-08-03T09:55:13;1.98;;;1.83;;
29686;SDS011;16599;47.078;15.536;2022-08-03T09:58:04;1.92;;;1.83;;
29686;SDS011;16599;47.078;15.536;2022-08-03T10:00:32;2.13;;;1.90;;
29686;SDS011;16599;47.078;15.536;2022-08-03T10:03:27;2.05;;;1.92;;
29686;SDS011;16599;47.078;15.536;2022-08-03T10:05:54;2.25;;;1.90;;
29686;SDS011;16599;47.078;15.536;2022-08-03T10:08:25;5.28;;;2.10;;
29686;SDS011;16599;47.078;15.536;2022-08-03T10:10:52;2.33;;;1.88;;
29686;SDS011;16599;47.078;15.536;2022-08-03T10:13:23;2.20;;;1.77;;
29686;SDS011;16599;47.078;15.536;2022-08-03T10:15:50;2.70;;;2.20;;
29686;SDS011;16599;47.078;15.536;2022-08-03T10:18:37;1.92;;;1.83;;
29686;SDS011;16599;47.078;15.536;2022-08-03T10:21:06;2.40;;;2.20;;
29686;SDS011;16599;47.078;15.536;2022-08-03T10:26:03;2.13;;;2.00;;
29686;SDS011;16599;47.078;15.536;2022-08-03T10:28:34;3.40;;;2.10;;
29686;SDS011;16599;47.078;15.536;2022-08-03T10:31:10;2.65;;;1.90;;
29686;SDS011;16599;47.078;15.536;2022-08-03T10:33:40;1.63;;;1.52;;
29686;SDS011;16599;47.078;15.536;2022-08-03T10:36:18;2.10;;;1.73;;
29686;SDS011;16599;47.078;15.536;2022-08-03T10:38:49;2.65;;;1.60;;
29686;SDS011;16599;47.078;15.536;2022-08-03T10:44:08;2.00;;;1.63;;
29686;SDS011;16599;47.078;15.536;2022-08-03T10:46:38;2.33;;;1.90;;
29686;SDS011;16599;47.078;15.536;2022-08-03T10:49:13;2.25;;;1.95;;
29686;SDS011;16599;47.078;15.536;2022-08-03T10:52:00;2.30;;;2.10;;
29686;SDS011;16599;47.078;15.536;2022-08-03T10:54:39;2.30;;;2.00;;
29686;SDS011;16599;47.078;15.536;2022-08-03T10:57:52;1.98;;;1.75;;
29686;SDS011;16599;47.078;15.536;2022-08-03T11:00:24;1.90;;;1.77;;
29686;SDS011;16599;47.078;15.536;2022-08-03T11:05:37;1.45;;;1.35;;
29686;SDS011;16599;47.078;15.536;2022-08-03T11:08:21;1.83;;;1.70;;
29686;SDS011;16599;47.078;15.536;2022-08-03T11:10:57;1.85;;;1.75;;
29686;SDS011;16599;47.078;15.536;2022-08-03T11:13:29;2.42;;;1.50;;
29686;SDS011;16599;47.078;15.536;2022-08-03T11:15:59;1.60;;;1.50;;
29686;SDS011;16599;47.078;15.536;2022-08-03T11:18:32;3.25;;;1.55;;
29686;SDS011;16599;47.078;15.536;2022-08-03T11:21:00;1.55;;;1.45;;
29686;SDS011;16599;47.078;15.536;2022-08-03T11:23:41;1.60;;;1.50;;
29686;SDS011;16599;47.078;15.536;2022-08-03T11:26:29;2.13;;;1.52;;
29686;SDS011;16599;47.078;15.536;2022-08-03T11:29:25;1.92;;;1.80;;
29686;SDS011;16599;47.078;15.536;2022-08-03T11:31:53;2.08;;;1.70;;
29686;SDS011;16599;47.078;15.536;2022-08-03T11:34:20;2.25;;;1.50;;
29686;SDS011;16599;47.078;15.536;2022-08-03T11:39:48;3.03;;;1.63;;
29686;SDS011;16599;47.078;15.536;2022-08-03T11:44:50;1.92;;;1.80;;
29686;SDS011;16599;47.078;15.536;2022-08-03T11:47:22;1.70;;;1.60;;
29686;SDS011;16599;47.078;15.536;2022-08-03T11:49:58;2.92;;;1.90;;
29686;SDS011;16599;47.078;15.536;2022-08-03T11:52:33;2.53;;;1.90;;
29686;SDS011;16599;47.078;15.536;2022-08-03T11:55:01;1.60;;;1.50;;
29686;SDS011;16599;47.078;15.536;2022-08-03T11:57:34;3.53;;;2.17;;
29686;SDS011;16599;47.078;15.536;2022-08-03T12:00:25;1.65;;;1.55;;
29686;SDS011;16599;47.078;15.536;2022-08-03T12:02:54;2.20;;;2.00;;
29686;SDS011;16599;47.078;15.536;2022-08-03T12:05:42;2.55;;;1.60;;
29686;SDS011;16599;47.078;15.536;2022-08-03T12:10:53;2.75;;;1.60;;
29686;SDS011;16599;47.078;15.536;2022-08-03T12:13:22;2.00;;;1.80;;
29686;SDS011;16599;47.078;15.536;2022-08-03T12:16:16;5.80;;;1.83;;
29686;SDS011;16599;47.078;15.536;2022-08-03T12:18:54;1.58;;;1.48;;
29686;SDS011;16599;47.078;15.536;2022-08-03T12:21:29;2.33;;;1.70;;
29686;SDS011;16599;47.078;15.536;2022-08-03T12:23:57;1.52;;;1.42;;
29686;SDS011;16599;47.078;15.536;2022-08-03T12:26:26;1.70;;;1.60;;
29686;SDS011;16599;47.078;15.536;2022-08-03T12:28:54;1.83;;;1.60;;
29686;SDS011;16599;47.078;15.536;2022-08-03T12:31:22;2.78;;;1.60;;
29686;SDS011;16599;47.078;15.536;2022-08-03T12:33:54;2.78;;;1.50;;
29686;SDS011;16599;47.078;15.536;2022-08-03T12:36:24;1.92;;;1.70;;
29686;SDS011;16599;47.078;15.536;2022-08-03T12:38:56;1.77;;;1.67;;
29686;SDS011;16599;47.078;15.536;2022-08-03T12:41:28;1.58;;;1.48;;
29686;SDS011;16599;47.078;15.536;2022-08-03T12:43:57;1.90;;;1.42;;
29686;SDS011;16599;47.078;15.536;2022-08-03T12:46:29;1.50;;;1.40;;
29686;SDS011;16599;47.078;15.536;2022-08-03T12:49:07;1.55;;;1.45;;
29686;SDS011;16599;47.078;15.536;2022-08-03T12:54:17;1.77;;;1.52;;
29686;SDS011;16599;47.078;15.536;2022-08-03T12:59:23;1.80;;;1.40;;
29686;SDS011;16599;47.078;15.536;2022-08-03T13:02:01;1.42;;;1.33;;
29686;SDS011;16599;47.078;15.536;2022-08-03T13:04:35;1.58;;;1.42;;
29686;SDS011;16599;47.078;15.536;2022-08-03T13:07:03;2.47;;;1.23;;
29686;SDS011;16599;47.078;15.536;2022-08-03T13:09:46;2.72;;;1.42;;
29686;SDS011;16599;47.078;15.536;2022-08-03T13:12:16;1.70;;;1.60;;
29686;SDS011;16599;47.078;15.536;2022-08-03T13:14:49;1.40;;;1.30;;
29686;SDS011;16599;47.078;15.536;2022-08-03T13:17:26;4.28;;;1.20;;
29686;SDS011;16599;47.078;15.536;2022-08-03T13:19:53;1.70;;;1.60;;
29686;SDS011;16599;47.078;15.536;2022-08-03T13:22:21;1.25;;;1.23;;
29686;SDS011;16599;47.078;15.536;2022-08-03T13:24:50;2.42;;;1.65;;
29686;SDS011;16599;47.078;15.536;2022-08-03T13:27:21;2.60;;;1.40;;
29686;SDS011;16599;47.078;15.536;2022-08-03T13:30:08;1.98;;;1.40;;
29686;SDS011;16599;47.078;15.536;2022-08-03T13:32:36;1.95;;;1.33;;
29686;SDS011;16599;47.078;15.536;2022-08-03T13:35:03;1.48;;;1.38;;
29686;SDS011;16599;47.078;15.536;2022-08-03T13:37:31;1.27;;;1.20;;
29686;SDS011;16599;47.078;15.536;2022-08-03T13:39:58;2.38;;;1.60;;
29686;SDS011;16599;47.078;15.536;2022-08-03T13:42:28;1.20;;;1.20;;
29686;SDS011;16599;47.078;15.536;2022-08-03T13:44:56;1.70;;;1.60;;
29686;SDS011;16599;47.078;15.536;2022-08-03T13:47:24;1.45;;;1.35;;
29686;SDS011;16599;47.078;15.536;2022-08-03T13:49:51;1.95;;;1.50;;
29686;SDS011;16599;47.078;15.536;2022-08-03T13:52:33;1.42;;;1.33;;
29686;SDS011;16599;47.078;15.536;2022-08-03T13:55:02;1.63;;;1.52;;
29686;SDS011;16599;47.078;15.536;2022-08-03T13:57:30;1.65;;;1.30;;
29686;SDS011;16599;47.078;15.536;2022-08-03T14:00:18;3.25;;;1.40;;
29686;SDS011;16599;47.078;15.536;2022-08-03T14:02:54;1.38;;;1.27;;
29686;SDS011;16599;47.078;15.536;2022-08-03T14:05:39;2.47;;;1.30;;
29686;SDS011;16599;47.078;15.536;2022-08-03T14:08:07;1.42;;;1.33;;
29686;SDS011;16599;47.078;15.536;2022-08-03T14:10:36;1.45;;;1.38;;
29686;SDS011;16599;47.078;15.536;2022-08-03T14:13:06;1.55;;;1.25;;
29686;SDS011;16599;47.078;15.536;2022-08-03T14:15:33;1.92;;;1.55;;
29686;SDS011;16599;47.078;15.536;2022-08-03T14:18:03;5.80;;;1.40;;
29686;SDS011;16599;47.078;15.536;2022-08-03T14:20:41;1.33;;;1.10;;
29686;SDS011;16599;47.078;15.536;2022-08-03T14:23:17;1.60;;;1.50;;
29686;SDS011;16599;47.078;15.536;2022-08-03T14:25:44;1.52;;;1.42;;
29686;SDS011;16599;47.078;15.536;2022-08-03T14:28:18;2.35;;;1.48;;
29686;SDS011;16599;47.078;15.536;2022-08-03T14:30:48;1.33;;;1.23;;
29686;SDS011;16599;47.078;15.536;2022-08-03T14:33:19;2.13;;;1.30;;
29686;SDS011;16599;47.078;15.536;2022-08-03T14:35:46;1.98;;;1.70;;
29686;SDS011;16599;47.078;15.536;2022-08-03T14:38:13;1.58;;;1.48;;
29686;SDS011;16599;47.078;15.536;2022-08-03T14:40:41;1.50;;;1.40;;
29686;SDS011;16599;47.078;15.536;2022-08-03T14:43:08;1.45;;;1.35;;
29686;SDS011;16599;47.078;15.536;2022-08-03T14:45:35;1.58;;;1.25;;
29686;SDS011;16599;47.078;15.536;2022-08-03T14:48:02;1.55;;;1.45;;
29686;SDS011;16599;47.078;15.536;2022-08-03T14:50:50;2.00;;;1.42;;
29686;SDS011;16599;47.078;15.536;2022-08-03T14:53:21;1.45;;;1.30;;
29686;SDS011;16599;47.078;15.536;2022-08-03T14:55:48;1.73;;;1.27;;
29686;SDS011;16599;47.078;15.536;2022-08-03T14:58:17;1.52;;;1.20;;
29686;SDS011;16599;47.078;15.536;2022-08-03T15:00:47;1.70;;;1.40;;
29686;SDS011;16599;47.078;15.536;2022-08-03T15:03:14;2.38;;;1.52;;
29686;SDS011;16599;47.078;15.536;2022-08-03T15:05:42;2.05;;;1.38;;
29686;SDS011;16599;47.078;15.536;2022-08-03T15:08:09;1.40;;;1.33;;
29686;SDS011;16599;47.078;15.536;2022-08-03T15:10:36;1.25;;;1.15;;
29686;SDS011;16599;47.078;15.536;2022-08-03T15:13:10;3.92;;;1.45;;
29686;SDS011;16599;47.078;15.536;2022-08-03T15:15:38;3.22;;;1.38;;
29686;SDS011;16599;47.078;15.536;2022-08-03T15:18:05;1.55;;;1.45;;
29686;SDS011;16599;47.078;15.536;2022-08-03T15:20:32;2.28;;;1.27;;
29686;SDS011;16599;47.078;15.536;2022-08-03T15:23:12;4.78;;;1.35;;
29686;SDS011;16599;47.078;15.536;2022-08-03T15:25:40;1.45;;;1.35;;
29686;SDS011;16599;47.078;15.536;2022-08-03T15:28:31;1.98;;;1.55;;
29686;SDS011;16599;47.078;15.536;2022-08-03T15:30:58;3.05;;;1.55;;
29686;SDS011;16599;47.078;15.536;2022-08-03T15:33:25;1.55;;;1.27;;
29686;SDS011;16599;47.078;15.536;2022-08-03T15:35:52;2.13;;;1.25;;
29686;SDS011;16599;47.078;15.536;2022-08-03T15:38:19;1.30;;;1.20;;
29686;SDS011;16599;47.078;15.536;2022-08-03T15:40:51;3.13;;;1.30;;
29686;SDS011;16599;47.078;15.536;2022-08-03T15:43:22;1.40;;;1.30;;
29686;SDS011;16599;47.078;15.536;2022-08-03T15:45:49;1.13;;;1.10;;
29686;SDS011;16599;47.078;15.536;2022-08-03T15:48:36;1.88;;;1.20;;
29686;SDS011;16599;47.078;15.536;2022-08-03T15:51:04;1.80;;;1.50;;
29686;SDS011;16599;47.078;15.536;2022-08-03T15:53:34;2.15;;;1.25;;
29686;SDS011;16599;47.078;15.536;2022-08-03T15:56:02;3.35;;;1.20;;
29686;SDS011;16599;47.078;15.536;2022-08-03T15:58:37;1.63;;;1.30;;
29686;SDS011;16599;47.078;15.536;2022-08-03T16:01:24;1.10;;;1.10;;
29686;SDS011;16599;47.078;15.536;2022-08-03T16:03:51;2.10;;;1.30;;
29686;SDS011;16599;47.078;15.536;2022-08-03T16:06:19;1.50;;;1.40;;
29686;SDS011;16599;47.078;15.536;2022-08-03T16:09:00;1.30;;;1.20;;
29686;SDS011;16599;47.078;15.536;2022-08-03T16:11:27;1.83;;;1.35;;
29686;SDS011;16599;47.078;15.536;2022-08-03T16:13:54;1.40;;;1.30;;
29686;SDS011;16599;47.078;15.536;2022-08-03T16:16:41;2.13;;;1.27;;
29686;SDS011;16599;47.078;15.536;2022-08-03T16:19:08;1.60;;;1.50;;
29686;SDS011;16599;47.078;15.536;2022-08-03T16:21:35;3.28;;;1.60;;
29686;SDS011;16599;47.078;15.536;2022-08-03T16:24:14;1.67;;;1.58;;
29686;SDS011;16599;47.078;15.536;2022-08-03T16:26:51;1.45;;;1.35;;
29686;SDS011;16599;47.078;15.536;2022-08-03T16:29:18;4.38;;;1.67;;
29686;SDS011;16599;47.078;15.536;2022-08-03T16:31:48;2.10;;;1.35;;
29686;SDS011;16599;47.078;15.536;2022-08-03T16:34:16;2.90;;;1.50;;
29686;SDS011;16599;47.078;15.536;2022-08-03T16:36:44;2.30;;;1.52;;
29686;SDS011;16599;47.078;15.536;2022-08-03T16:39:11;1.73;;;1.60;;
29686;SDS011;16599;47.078;15.536;2022-08-03T16:41:38;2.25;;;1.40;;
29686;SDS011;16599;47.078;15.536;2022-08-03T16:44:25;1.45;;;1.35;;
29686;SDS011;16599;47.078;15.536;2022-08-03T16:46:52;2.78;;;1.50;;
29686;SDS011;16599;47.078;15.536;2022-08-03T16:49:19;2.65;;;1.45;;
29686;SDS011;16599;47.078;15.536;2022-08-03T16:52:06;2.92;;;1.30;;
29686;SDS011;16599;47.078;15.536;2022-08-03T16:54:33;2.35;;;1.40;;
29686;SDS011;16599;47.078;15.536;2022-08-03T16:57:00;3.53;;;1.95;;
29686;SDS011;16599;47.078;15.536;2022-08-03T16:59:27;3.35;;;1.50;;
29686;SDS011;16599;47.078;15.536;2022-08-03T17:02:02;2.85;;;1.40;;
29686;SDS011;16599;47.078;15.536;2022-08-03T17:04:35;1.55;;;1.30;;
29686;SDS011;16599;47.078;15.536;2022-08-03T17:07:05;1.85;;;1.75;;
29686;SDS011;16599;47.078;15.536;2022-08-03T17:09:34;1.45;;;1.35;;
29686;SDS011;16599;47.078;15.536;2022-08-03T17:12:04;1.48;;;1.38;;
29686;SDS011;16599;47.078;15.536;2022-08-03T17:14:32;1.60;;;1.50;;
29686;SDS011;16599;47.078;15.536;2022-08-03T17:17:00;1.40;;;1.30;;
29686;SDS011;16599;47.078;15.536;2022-08-03T17:19:29;2.28;;;1.58;;
29686;SDS011;16599;47.078;15.536;2022-08-03T17:22:08;2.45;;;1.40;;
29686;SDS011;16599;47.078;15.536;2022-08-03T17:24:38;1.50;;;1.40;;
29686;SDS011;16599;47.078;15.536;2022-08-03T17:27:19;1.67;;;1.58;;
29686;SDS011;16599;47.078;15.536;2022-08-03T17:30:10;1.52;;;1.25;;
29686;SDS011;16599;47.078;15.536;2022-08-03T17:32:41;1.60;;;1.50;;
29686;SDS011;16599;47.078;15.536;2022-08-03T17:35:22;1.85;;;1.45;;
29686;SDS011;16599;47.078;15.536;2022-08-03T17:37:59;1.67;;;1.58;;
29686;SDS011;16599;47.078;15.536;2022-08-03T17:40:29;2.47;;;1.75;;
29686;SDS011;16599;47.078;15.536;2022-08-03T17:42:57;8.20;;;1.80;;
29686;SDS011;16599;47.078;15.536;2022-08-03T17:45:25;2.15;;;1.70;;
29686;SDS011;16599;47.078;15.536;2022-08-03T17:48:18;5.18;;;1.70;;
29686;SDS011;16599;47.078;15.536;2022-08-03T17:50:51;3.03;;;1.80;;
29686;SDS011;16599;47.078;15.536;2022-08-03T17:53:27;2.08;;;1.83;;
29686;SDS011;16599;47.078;15.536;2022-08-03T18:01:57;3.22;;;1.95;;
29686;SDS011;16599;47.078;15.536;2022-08-03T18:05:03;2.00;;;1.55;;
29686;SDS011;16599;47.078;15.536;2022-08-03T18:07:46;1.65;;;1.55;;
29686;SDS011;16599;47.078;15.536;2022-08-03T18:10:29;2.63;;;1.80;;
29686;SDS011;16599;47.078;15.536;2022-08-03T18:13:20;2.10;;;1.90;;
29686;SDS011;16599;47.078;15.536;2022-08-03T18:18:41;1.63;;;1.50;;
29686;SDS011;16599;47.078;15.536;2022-08-03T18:21:13;2.15;;;1.95;;
29686;SDS011;16599;47.078;15.536;2022-08-03T18:23:42;4.47;;;1.60;;
29686;SDS011;16599;47.078;15.536;2022-08-03T18:26:16;1.95;;;1.80;;
29686;SDS011;16599;47.078;15.536;2022-08-03T18:28:43;2.33;;;1.60;;
29686;SDS011;16599;47.078;15.536;2022-08-03T18:31:11;3.25;;;1.92;;
29686;SDS011;16599;47.078;15.536;2022-08-03T18:34:01;2.53;;;1.85;;
29686;SDS011;16599;47.078;15.536;2022-08-03T18:36:48;2.47;;;1.75;;
29686;SDS011;16599;47.078;15.536;2022-08-03T18:39:15;2.85;;;1.88;;
29686;SDS011;16599;47.078;15.536;2022-08-03T18:41:44;3.88;;;2.10;;
29686;SDS011;16599;47.078;15.536;2022-08-03T18:44:12;3.05;;;2.00;;
29686;SDS011;16599;47.078;15.536;2022-08-03T18:47:06;1.75;;;1.63;;
29686;SDS011;16599;47.078;15.536;2022-08-03T18:50:18;3.17;;;1.90;;
29686;SDS011;16599;47.078;15.536;2022-08-03T18:59:18;4.35;;;1.80;;
29686;SDS011;16599;47.078;15.536;2022-08-03T19:01:29;3.28;;;2.05;;
29686;SDS011;16599;47.078;15.536;2022-08-03T19:04:25;4.15;;;2.17;;
29686;SDS011;16599;47.078;15.536;2022-08-03T19:07:08;3.10;;;1.77;;
29686;SDS011;16599;47.078;15.536;2022-08-03T19:12:20;3.33;;;2.00;;
29686;SDS011;16599;47.078;15.536;2022-08-03T19:15:00;2.90;;;2.20;;
29686;SDS011;16599;47.078;15.536;2022-08-03T19:17:39;2.78;;;2.13;;
29686;SDS011;16599;47.078;15.536;2022-08-03T19:20:27;3.00;;;1.83;;
29686;SDS011;16599;47.078;15.536;2022-08-03T19:22:57;1.98;;;1.77;;
29686;SDS011;16599;47.078;15.536;2022-08-03T19:25:25;2.53;;;2.00;;
29686;SDS011;16599;47.078;15.536;2022-08-03T19:28:01;2.63;;;2.22;;
29686;SDS011;16599;47.078;15.536;2022-08-03T19:30:35;5.97;;;2.30;;
29686;SDS011;16599;47.078;15.536;2022-08-03T19:33:05;2.35;;;2.15;;
29686;SDS011;16599;47.078;15.536;2022-08-03T19:35:43;3.78;;;2.60;;
29686;SDS011;16599;47.078;15.536;2022-08-03T19:38:22;3.13;;;2.10;;
29686;SDS011;16599;47.078;15.536;2022-08-03T19:40:58;3.88;;;2.30;;
29686;SDS011;16599;47.078;15.536;2022-08-03T19:43:29;2.53;;;2.13;;
29686;SDS011;16599;47.078;15.536;2022-08-03T19:46:19;3.03;;;2.28;;
29686;SDS011;16599;47.078;15.536;2022-08-03T19:49:10;4.15;;;2.13;;
29686;SDS011;16599;47.078;15.536;2022-08-03T19:51:59;2.53;;;2.30;;
29686;SDS011;16599;47.078;15.536;2022-08-03T19:54:38;2.88;;;2.10;;
29686;SDS011;16599;47.078;15.536;2022-08-03T19:57:18;2.60;;;2.40;;
29686;SDS011;16599;47.078;15.536;2022-08-03T19:59:49;2.05;;;1.85;;
29686;SDS011;16599;47.078;15.536;2022-08-03T20:02:18;2.42;;;2.15;;
29686;SDS011;16599;47.078;15.536;2022-08-03T20:04:52;4.40;;;2.50;;
29686;SDS011;16599;47.078;15.536;2022-08-03T20:07:20;4.47;;;2.40;;
29686;SDS011;16599;47.078;15.536;2022-08-03T20:09:48;2.40;;;2.20;;
29686;SDS011;16599;47.078;15.536;2022-08-03T20:12:37;3.10;;;2.50;;
29686;SDS011;16599;47.078;15.536;2022-08-03T20:15:04;2.80;;;2.35;;
29686;SDS011;16599;47.078;15.536;2022-08-03T20:17:33;5.45;;;2.80;;
29686;SDS011;16599;47.078;15.536;2022-08-03T20:20:25;2.83;;;2.60;;
29686;SDS011;16599;47.078;15.536;2022-08-03T20:22:56;2.67;;;2.40;;
29686;SDS011;16599;47.078;15.536;2022-08-03T20:25:28;3.35;;;2.33;;
29686;SDS011;16599;47.078;15.536;2022-08-03T20:28:08;4.70;;;2.30;;
29686;SDS011;16599;47.078;15.536;2022-08-03T20:30:40;3.58;;;2.58;;
29686;SDS011;16599;47.078;15.536;2022-08-03T20:33:09;2.53;;;2.20;;
29686;SDS011;16599;47.078;15.536;2022-08-03T20:35:36;2.35;;;2.15;;
29686;SDS011;16599;47.078;15.536;2022-08-03T20:38:07;2.50;;;2.20;;
29686;SDS011;16599;47.078;15.536;2022-08-03T20:40:34;3.08;;;2.53;;
29686;SDS011;16599;47.078;15.536;2022-08-03T20:43:03;2.95;;;2.50;;
29686;SDS011;16599;47.078;15.536;2022-08-03T20:45:30;2.72;;;2.15;;
29686;SDS011;16599;47.078;15.536;2022-08-03T20:48:17;2.90;;;2.17;;
29686;SDS011;16599;47.078;15.536;2022-08-03T20:50:47;3.10;;;2.28;;
29686;SDS011;16599;47.078;15.536;2022-08-03T20:53:15;4.43;;;2.05;;
29686;SDS011;16599;47.078;15.536;2022-08-03T20:56:03;2.38;;;2.17;;
29686;SDS011;16599;47.078;15.536;2022-08-03T20:58:32;2.40;;;2.20;;
29686;SDS011;16599;47.078;15.536;2022-08-03T21:01:01;3.20;;;2.10;;
29686;SDS011;16599;47.078;15.536;2022-08-03T21:03:28;3.42;;;2.22;;
29686;SDS011;16599;47.078;15.536;2022-08-03T21:06:17;2.35;;;2.15;;
29686;SDS011;16599;47.078;15.536;2022-08-03T21:08:55;4.55;;;2.38;;
29686;SDS011;16599;47.078;15.536;2022-08-03T21:11:37;4.07;;;2.35;;
29686;SDS011;16599;47.078;15.536;2022-08-03T21:14:14;3.20;;;2.20;;
29686;SDS011;16599;47.078;15.536;2022-08-03T21:17:00;2.60;;;2.40;;
29686;SDS011;16599;47.078;15.536;2022-08-03T21:19:48;2.85;;;2.33;;
29686;SDS011;16599;47.078;15.536;2022-08-03T21:22:19;2.03;;;1.90;;
29686;SDS011;16599;47.078;15.536;2022-08-03T21:24:48;2.35;;;2.15;;
29686;SDS011;16599;47.078;15.536;2022-08-03T21:27:21;4.30;;;2.22;;
29686;SDS011;16599;47.078;15.536;2022-08-03T21:29:49;4.47;;;2.38;;
29686;SDS011;16599;47.078;15.536;2022-08-03T21:32:19;3.63;;;2.20;;
29686;SDS011;16599;47.078;15.536;2022-08-03T21:34:58;3.75;;;2.00;;
29686;SDS011;16599;47.078;15.536;2022-08-03T21:37:26;2.65;;;2.45;;
29686;SDS011;16599;47.078;15.536;2022-08-03T21:39:53;2.50;;;2.30;;
29686;SDS011;16599;47.078;15.536;2022-08-03T21:42:21;4.63;;;2.63;;
29686;SDS011;16599;47.078;15.536;2022-08-03T21:44:52;4.15;;;2.30;;
29686;SDS011;16599;47.078;15.536;2022-08-03T21:47:19;2.65;;;2.45;;
29686;SDS011;16599;47.078;15.536;2022-08-03T21:49:48;2.22;;;2.05;;
29686;SDS011;16599;47.078;15.536;2022-08-03T21:52:35;2.47;;;2.28;;
29686;SDS011;16599;47.078;15.536;2022-08-03T21:55:12;5.55;;;2.60;;
29686;SDS011;16599;47.078;15.536;2022-08-03T21:57:49;2.72;;;2.45;;
29686;SDS011;16599;47.078;15.536;2022-08-03T22:00:20;2.58;;;2.38;;
29686;SDS011;16599;47.078;15.536;2022-08-03T22:02:52;3.05;;;2.65;;
29686;SDS011;16599;47.078;15.536;2022-08-03T22:05:24;4.90;;;3.30;;
29686;SDS011;16599;47.078;15.536;2022-08-03T22:08:09;3.03;;;2.78;;
29686;SDS011;16599;47.078;15.536;2022-08-03T22:10:38;5.55;;;2.80;;
29686;SDS011;16599;47.078;15.536;2022-08-03T22:13:05;3.10;;;2.80;;
29686;SDS011;16599;47.078;15.536;2022-08-03T22:15:32;3.97;;;3.00;;
29686;SDS011;16599;47.078;15.536;2022-08-03T22:17:59;3.75;;;3.22;;
29686;SDS011;16599;47.078;15.536;2022-08-03T22:20:29;4.38;;;3.10;;
29686;SDS011;16599;47.078;15.536;2022-08-03T22:22:59;3.30;;;3.00;;
29686;SDS011;16599;47.078;15.536;2022-08-03T22:25:28;3.20;;;2.90;;
29686;SDS011;16599;47.078;15.536;2022-08-03T22:28:18;3.33;;;3.03;;
29686;SDS011;16599;47.078;15.536;2022-08-03T22:30:47;4.28;;;3.25;;
29686;SDS011;16599;47.078;15.536;2022-08-03T22:33:14;3.28;;;2.88;;
29686;SDS011;16599;47.078;15.536;2022-08-03T22:35:42;3.28;;;2.97;;
29686;SDS011;16599;47.078;15.536;2022-08-03T22:38:13;3.13;;;2.83;;
29686;SDS011;16599;47.078;15.536;2022-08-03T22:40:41;3.95;;;3.40;;
29686;SDS011;16599;47.078;15.536;2022-08-03T22:43:08;3.58;;;3.28;;
29686;SDS011;16599;47.078;15.536;2022-08-03T22:45:35;5.90;;;3.20;;
29686;SDS011;16599;47.078;15.536;2022-08-03T22:48:23;3.40;;;3.10;;
29686;SDS011;16599;47.078;15.536;2022-08-03T22:50:52;4.40;;;3.33;;
29686;SDS011;16599;47.078;15.536;2022-08-03T22:53:21;3.63;;;3.25;;
29686;SDS011;16599;47.078;15.536;2022-08-03T22:55:48;5.00;;;3.28;;
29686;SDS011;16599;47.078;15.536;2022-08-03T22:58:16;3.00;;;2.80;;
29686;SDS011;16599;47.078;15.536;2022-08-03T23:00:56;5.78;;;3.63;;
29686;SDS011;16599;47.078;15.536;2022-08-03T23:03:30;3.42;;;3.13;;
29686;SDS011;16599;47.078;15.536;2022-08-03T23:06:18;4.72;;;3.47;;
29686;SDS011;16599;47.078;15.536;2022-08-03T23:08:46;3.60;;;3.30;;
29686;SDS011;16599;47.078;15.536;2022-08-03T23:11:16;4.93;;;3.78;;
29686;SDS011;16599;47.078;15.536;2022-08-03T23:13:45;4.13;;;3.70;;
29686;SDS011;16599;47.078;15.536;2022-08-03T23:16:14;4.30;;;3.47;;
29686;SDS011;16599;47.078;15.536;2022-08-03T23:18:55;6.97;;;3.55;;
29686;SDS011;16599;47.078;15.536;2022-08-03T23:21:25;5.30;;;3.63;;
29686;SDS011;16599;47.078;15.536;2022-08-03T23:24:13;4.50;;;3.30;;
29686;SDS011;16599;47.078;15.536;2022-08-03T23:26:55;4.97;;;3.65;;
29686;SDS011;16599;47.078;15.536;2022-08-03T23:29:22;4.88;;;3.95;;
29686;SDS011;16599;47.078;15.536;2022-08-03T23:31:49;5.65;;;3.60;;
29686;SDS011;16599;47.078;15.536;2022-08-03T23:34:18;4.18;;;3.38;;
29686;SDS011;16599;47.078;15.536;2022-08-03T23:37:19;3.50;;;3.10;;
29686;SDS011;16599;47.078;15.536;2022-08-03T23:39:47;3.65;;;3.35;;
29686;SDS011;16599;47.078;15.536;2022-08-03T23:42:17;4.45;;;3.17;;
29686;SDS011;16599;47.078;15.536;2022-08-03T23:44:46;4.72;;;3.72;;
29686;SDS011;16599;47.078;15.536;2022-08-03T23:47:19;4.15;;;3.70;;
29686;SDS011;16599;47.078;15.536;2022-08-03T23:49:46;4.85;;;3.75;;
29686;SDS011;16599;47.078;15.536;2022-08-03T23:52:32;6.10;;;3.60;;
29686;SDS011;16599;47.078;15.536;2022-08-03T23:58:04;3.47;;;3.17;;
